sensor_id;sensor_type;location;lat;lon;timestamp;pressure;altitude;pressure_sealevel;temperature;humidity
7058;BME280;3570;43.080;25.628;2023-01-26T00:01:45;-19493.44;;;1.38;100.00
7058;BME280;3570;43.080;25.628;2023-01-26T00:04:29;-19493.44;;;1.38;100.00
7058;BME280;3570;43.080;25.628;2023-01-26T00:07:13;-19486.97;;;1.16;100.00
7058;BME280;3570;43.080;25.628;2023-01-26T00:09:57;-19494.75;;;1.42;100.00
7058;BME280;3570;43.080;25.628;2023-01-26T00:12:41;-19495.03;;;1.43;100.00
7058;BME280;3570;43.080;25.628;2023-01-26T00:15:25;-19488.72;;;1.22;100.00
7058;BME280;3570;43.080;25.628;2023-01-26T00:18:09;-19493.72;;;1.39;100.00
7058;BME280;3570;43.080;25.628;2023-01-26T00:21:00;-19486.66;;;1.15;100.00
7058;BME280;3570;43.080;25.628;2023-01-26T00:23:45;-19492.09;;;1.33;100.00
7058;BME280;3570;43.080;25.628;2023-01-26T00:26:29;-19492.53;;;1.35;100.00
7058;BME280;3570;43.080;25.628;2023-01-26T00:29:13;-19469.47;;;0.56;100.00
7058;BME280;3570;43.080;25.628;2023-01-26T00:31:57;-19492.69;;;1.35;100.00
7058;BME280;3570;43.080;25.628;2023-01-26T00:34:41;-19487.53;;;1.18;100.00
7058;BME280;3570;43.080;25.628;2023-01-26T00:37:24;-19493.88;;;1.39;100.00
7058;BME280;3570;43.080;25.628;2023-01-26T00:40:09;-19493.56;;;1.38;100.00
7058;BME280;3570;43.080;25.628;2023-01-26T00:42:53;-19492.53;;;1.35;100.00
7058;BME280;3570;43.080;25.628;2023-01-26T00:45:38;-19493.44;;;1.38;100.00
7058;BME280;3570;43.080;25.628;2023-01-26T00:48:22;-19490.78;;;1.29;100.00
7058;BME280;3570;43.080;25.628;2023-01-26T00:51:06;-19484.75;;;1.08;100.00
7058;BME280;3570;43.080;25.628;2023-01-26T00:53:49;-19484.59;;;1.08;100.00
7058;BME280;3570;43.080;25.628;2023-01-26T00:56:33;-19492.25;;;1.34;100.00
7058;BME280;3570;43.080;25.628;2023-01-26T00:59:17;-19492.69;;;1.35;100.00
7058;BME280;3570;43.080;25.628;2023-01-26T01:02:01;-19493.56;;;1.38;100.00
7058;BME280;3570;43.080;25.628;2023-01-26T01:04:45;-19490.47;;;1.28;100.00
7058;BME280;3570;43.080;25.628;2023-01-26T01:07:29;-19492.25;;;1.34;100.00
7058;BME280;3570;43.080;25.628;2023-01-26T01:10:14;-19490.03;;;1.26;100.00
7058;BME280;3570;43.080;25.628;2023-01-26T01:12:58;-19489.47;;;1.24;100.00
7058;BME280;3570;43.080;25.628;2023-01-26T01:15:42;-19480.78;;;0.94;100.00
7058;BME280;3570;43.080;25.628;2023-01-26T01:18:26;-19489.00;;;1.23;100.00
7058;BME280;3570;43.080;25.628;2023-01-26T01:21:15;-19488.28;;;1.20;100.00
7058;BME280;3570;43.080;25.628;2023-01-26T01:23:59;-19480.19;;;0.92;100.00
7058;BME280;3570;43.080;25.628;2023-01-26T01:26:43;-19487.25;;;1.17;100.00
7058;BME280;3570;43.080;25.628;2023-01-26T01:29:28;-19490.78;;;1.29;100.00
7058;BME280;3570;43.080;25.628;2023-01-26T01:32:12;-19489.47;;;1.24;100.00
7058;BME280;3570;43.080;25.628;2023-01-26T01:34:56;-19480.63;;;0.94;100.00
7058;BME280;3570;43.080;25.628;2023-01-26T01:37:40;-19487.09;;;1.16;100.00
7058;BME280;3570;43.080;25.628;2023-01-26T01:40:24;-19480.94;;;0.95;100.00
7058;BME280;3570;43.080;25.628;2023-01-26T01:43:11;-19486.06;;;1.13;100.00
7058;BME280;3570;43.080;25.628;2023-01-26T01:45:55;-19483.72;;;1.05;100.00
7058;BME280;3570;43.080;25.628;2023-01-26T01:54:59;-19480.50;;;0.93;100.00
7058;BME280;3570;43.080;25.628;2023-01-26T01:57:52;-19483.72;;;1.05;100.00
7058;BME280;3570;43.080;25.628;2023-01-26T02:00:38;-19477.25;;;0.82;100.00
7058;BME280;3570;43.080;25.628;2023-01-26T02:03:22;-19482.69;;;1.01;100.00
7058;BME280;3570;43.080;25.628;2023-01-26T02:06:19;-19475.94;;;0.78;100.00
7058;BME280;3570;43.080;25.628;2023-01-26T02:09:05;-19487.09;;;1.16;100.00
7058;BME280;3570;43.080;25.628;2023-01-26T02:11:50;-19484.91;;;1.09;100.00
7058;BME280;3570;43.080;25.628;2023-01-26T02:14:34;-19488.88;;;1.22;100.00
7058;BME280;3570;43.080;25.628;2023-01-26T02:17:18;-19485.34;;;1.10;100.00
7058;BME280;3570;43.080;25.628;2023-01-26T02:20:10;-19488.72;;;1.22;100.00
7058;BME280;3570;43.080;25.628;2023-01-26T02:28:37;-19484.75;;;1.08;100.00
7058;BME280;3570;43.080;25.628;2023-01-26T02:31:22;-19483.59;;;1.04;100.00
7058;BME280;3570;43.080;25.628;2023-01-26T02:34:06;-19484.47;;;1.07;100.00
7058;BME280;3570;43.080;25.628;2023-01-26T02:36:57;-19484.75;;;1.08;100.00
7058;BME280;3570;43.080;25.628;2023-01-26T02:42:26;-19482.53;;;1.01;100.00
7058;BME280;3570;43.080;25.628;2023-01-26T02:45:25;-19477.56;;;0.83;100.00
7058;BME280;3570;43.080;25.628;2023-01-26T02:48:10;-19483.44;;;1.04;100.00
7058;BME280;3570;43.080;25.628;2023-01-26T02:50:54;-19481.53;;;0.97;100.00
7058;BME280;3570;43.080;25.628;2023-01-26T02:53:38;-19472.25;;;0.65;100.00
7058;BME280;3570;43.080;25.628;2023-01-26T02:56:22;-19479.16;;;0.89;100.00
7058;BME280;3570;43.080;25.628;2023-01-26T02:59:06;-19472.41;;;0.66;100.00
7058;BME280;3570;43.080;25.628;2023-01-26T03:01:51;-19480.19;;;0.92;100.00
7058;BME280;3570;43.080;25.628;2023-01-26T03:04:35;-19482.53;;;1.01;100.00
7058;BME280;3570;43.080;25.628;2023-01-26T03:07:19;-19481.97;;;0.98;100.00
7058;BME280;3570;43.080;25.628;2023-01-26T03:10:04;-19476.09;;;0.78;100.00
7058;BME280;3570;43.080;25.628;2023-01-26T03:12:49;-19482.41;;;1.00;100.00
7058;BME280;3570;43.080;25.628;2023-01-26T03:15:33;-19469.63;;;0.56;100.00
7058;BME280;3570;43.080;25.628;2023-01-26T03:18:26;-19482.53;;;1.01;100.00
7058;BME280;3570;43.080;25.628;2023-01-26T03:21:29;-19482.84;;;1.02;100.00
7058;BME280;3570;43.080;25.628;2023-01-26T03:24:31;-19483.72;;;1.05;100.00
7058;BME280;3570;43.080;25.628;2023-01-26T03:27:46;-19486.38;;;1.14;100.00
7058;BME280;3570;43.080;25.628;2023-01-26T03:30:31;-19485.63;;;1.11;100.00
7058;BME280;3570;43.080;25.628;2023-01-26T03:33:16;-19484.59;;;1.08;100.00
7058;BME280;3570;43.080;25.628;2023-01-26T03:36:00;-19485.94;;;1.12;100.00
7058;BME280;3570;43.080;25.628;2023-01-26T03:38:44;-19478.44;;;0.86;100.00
7058;BME280;3570;43.080;25.628;2023-01-26T03:41:28;-19484.59;;;1.08;100.00
7058;BME280;3570;43.080;25.628;2023-01-26T03:44:30;-19485.19;;;1.10;100.00
7058;BME280;3570;43.080;25.628;2023-01-26T03:47:34;-19479.03;;;0.88;100.00
7058;BME280;3570;43.080;25.628;2023-01-26T03:50:37;-19480.50;;;0.93;100.00
7058;BME280;3570;43.080;25.628;2023-01-26T03:53:41;-19486.22;;;1.13;100.00
7058;BME280;3570;43.080;25.628;2023-01-26T03:56:44;-19470.50;;;0.59;100.00
7058;BME280;3570;43.080;25.628;2023-01-26T03:59:29;-19485.63;;;1.11;100.00
7058;BME280;3570;43.080;25.628;2023-01-26T04:02:22;-19483.13;;;1.03;100.00
7058;BME280;3570;43.080;25.628;2023-01-26T04:05:25;-19477.41;;;0.83;100.00
7058;BME280;3570;43.080;25.628;2023-01-26T04:08:27;-19475.94;;;0.78;100.00
7058;BME280;3570;43.080;25.628;2023-01-26T04:11:12;-19485.50;;;1.11;100.00
7058;BME280;3570;43.080;25.628;2023-01-26T04:13:56;-19484.03;;;1.06;100.00
7058;BME280;3570;43.080;25.628;2023-01-26T04:17:00;-19484.91;;;1.09;100.00
7058;BME280;3570;43.080;25.628;2023-01-26T04:20:07;-19482.84;;;1.02;100.00
7058;BME280;3570;43.080;25.628;2023-01-26T04:23:19;-19480.19;;;0.92;100.00
7058;BME280;3570;43.080;25.628;2023-01-26T04:26:03;-19483.88;;;1.05;100.00
7058;BME280;3570;43.080;25.628;2023-01-26T04:28:47;-19469.03;;;0.54;100.00
7058;BME280;3570;43.080;25.628;2023-01-26T04:31:31;-19476.81;;;0.81;100.00
7058;BME280;3570;43.080;25.628;2023-01-26T04:34:15;-19475.66;;;0.77;100.00
7058;BME280;3570;43.080;25.628;2023-01-26T04:36:59;-19481.22;;;0.96;100.00
7058;BME280;3570;43.080;25.628;2023-01-26T04:39:43;-19485.34;;;1.10;100.00
7058;BME280;3570;43.080;25.628;2023-01-26T04:42:27;-19485.03;;;1.09;100.00
7058;BME280;3570;43.080;25.628;2023-01-26T04:45:11;-19483.13;;;1.03;100.00
7058;BME280;3570;43.080;25.628;2023-01-26T04:47:55;-19479.31;;;0.89;100.00
7058;BME280;3570;43.080;25.628;2023-01-26T04:50:39;-19482.09;;;0.99;100.00
7058;BME280;3570;43.080;25.628;2023-01-26T04:53:23;-19483.00;;;1.02;100.00
7058;BME280;3570;43.080;25.628;2023-01-26T04:56:16;-19483.28;;;1.03;100.00
7058;BME280;3570;43.080;25.628;2023-01-26T04:59:04;-19478.13;;;0.85;100.00
7058;BME280;3570;43.080;25.628;2023-01-26T05:01:48;-19477.56;;;0.83;100.00
7058;BME280;3570;43.080;25.628;2023-01-26T05:04:32;-19484.91;;;1.09;100.00
7058;BME280;3570;43.080;25.628;2023-01-26T05:07:16;-19478.72;;;0.87;100.00
7058;BME280;3570;43.080;25.628;2023-01-26T05:10:00;-19480.50;;;0.93;100.00
7058;BME280;3570;43.080;25.628;2023-01-26T05:12:44;-19484.03;;;1.06;100.00
7058;BME280;3570;43.080;25.628;2023-01-26T05:15:28;-19482.41;;;1.00;100.00
7058;BME280;3570;43.080;25.628;2023-01-26T05:18:12;-19484.31;;;1.07;100.00
7058;BME280;3570;43.080;25.628;2023-01-26T05:20:57;-19481.06;;;0.95;100.00
7058;BME280;3570;43.080;25.628;2023-01-26T05:23:41;-19483.13;;;1.03;100.00
7058;BME280;3570;43.080;25.628;2023-01-26T05:26:25;-19478.13;;;0.85;100.00
7058;BME280;3570;43.080;25.628;2023-01-26T05:29:09;-19484.75;;;1.08;100.00
7058;BME280;3570;43.080;25.628;2023-01-26T05:31:53;-19486.50;;;1.14;100.00
7058;BME280;3570;43.080;25.628;2023-01-26T05:34:37;-19466.38;;;0.45;100.00
7058;BME280;3570;43.080;25.628;2023-01-26T05:37:23;-19477.69;;;0.84;100.00
7058;BME280;3570;43.080;25.628;2023-01-26T05:40:09;-19484.91;;;1.09;100.00
7058;BME280;3570;43.080;25.628;2023-01-26T05:42:54;-19483.44;;;1.04;100.00
7058;BME280;3570;43.080;25.628;2023-01-26T05:45:38;-19483.28;;;1.03;100.00
7058;BME280;3570;43.080;25.628;2023-01-26T05:48:23;-19484.91;;;1.09;100.00
7058;BME280;3570;43.080;25.628;2023-01-26T05:51:07;-19484.31;;;1.07;100.00
7058;BME280;3570;43.080;25.628;2023-01-26T05:53:51;-19476.66;;;0.80;100.00
7058;BME280;3570;43.080;25.628;2023-01-26T05:56:35;-19486.97;;;1.16;100.00
7058;BME280;3570;43.080;25.628;2023-01-26T05:59:19;-19491.06;;;1.30;100.00
7058;BME280;3570;43.080;25.628;2023-01-26T06:02:03;-19489.31;;;1.24;100.00
7058;BME280;3570;43.080;25.628;2023-01-26T06:04:47;-19478.28;;;0.86;100.00
7058;BME280;3570;43.080;25.628;2023-01-26T06:07:32;-19493.44;;;1.38;100.00
7058;BME280;3570;43.080;25.628;2023-01-26T06:10:16;-19493.88;;;1.39;100.00
7058;BME280;3570;43.080;25.628;2023-01-26T06:13:01;-19491.50;;;1.31;100.00
7058;BME280;3570;43.080;25.628;2023-01-26T06:15:44;-19492.69;;;1.35;100.00
7058;BME280;3570;43.080;25.628;2023-01-26T06:18:28;-19489.91;;;1.26;100.00
7058;BME280;3570;43.080;25.628;2023-01-26T06:21:12;-19483.72;;;1.05;100.00
7058;BME280;3570;43.080;25.628;2023-01-26T06:23:56;-19494.44;;;1.41;100.00
7058;BME280;3570;43.080;25.628;2023-01-26T06:26:41;-19493.88;;;1.39;100.00
7058;BME280;3570;43.080;25.628;2023-01-26T06:29:25;-19496.66;;;1.49;100.00
7058;BME280;3570;43.080;25.628;2023-01-26T06:32:10;-19493.72;;;1.39;100.00
7058;BME280;3570;43.080;25.628;2023-01-26T06:34:54;-19494.75;;;1.42;100.00
7058;BME280;3570;43.080;25.628;2023-01-26T06:37:38;-19496.81;;;1.49;100.00
7058;BME280;3570;43.080;25.628;2023-01-26T06:40:22;-19491.22;;;1.30;100.00
7058;BME280;3570;43.080;25.628;2023-01-26T06:43:06;-19493.28;;;1.37;100.00
7058;BME280;3570;43.080;25.628;2023-01-26T06:45:49;-19499.59;;;1.59;100.00
7058;BME280;3570;43.080;25.628;2023-01-26T06:48:34;-19500.91;;;1.63;100.00
7058;BME280;3570;43.080;25.628;2023-01-26T06:54:02;-19506.06;;;1.81;100.00
7058;BME280;3570;43.080;25.628;2023-01-26T06:56:46;-19509.00;;;1.91;100.00
7058;BME280;3570;43.080;25.628;2023-01-26T06:59:30;-19496.34;;;1.48;100.00
7058;BME280;3570;43.080;25.628;2023-01-26T07:02:17;-19508.13;;;1.88;100.00
7058;BME280;3570;43.080;25.628;2023-01-26T07:05:01;-19510.16;;;1.95;100.00
7058;BME280;3570;43.080;25.628;2023-01-26T07:07:45;-19517.81;;;2.21;100.00
7058;BME280;3570;43.080;25.628;2023-01-26T07:10:29;-19513.25;;;2.06;100.00
7058;BME280;3570;43.080;25.628;2023-01-26T07:13:13;-19519.88;;;2.28;100.00
7058;BME280;3570;43.080;25.628;2023-01-26T07:16:06;-19517.50;;;2.20;100.00
7058;BME280;3570;43.080;25.628;2023-01-26T07:18:52;-19518.09;;;2.22;100.00
7058;BME280;3570;43.080;25.628;2023-01-26T07:21:37;-19515.75;;;2.14;100.00
7058;BME280;3570;43.080;25.628;2023-01-26T07:24:22;-19516.34;;;2.16;100.00
7058;BME280;3570;43.080;25.628;2023-01-26T07:27:06;-19515.31;;;2.13;100.00
7058;BME280;3570;43.080;25.628;2023-01-26T07:29:50;-19516.63;;;2.17;100.00
7058;BME280;3570;43.080;25.628;2023-01-26T07:32:35;-19497.25;;;1.51;100.00
7058;BME280;3570;43.080;25.628;2023-01-26T07:35:19;-19506.06;;;1.81;100.00
7058;BME280;3570;43.080;25.628;2023-01-26T07:38:03;-19510.16;;;1.95;100.00
7058;BME280;3570;43.080;25.628;2023-01-26T07:40:48;-19501.66;;;1.66;100.00
7058;BME280;3570;43.080;25.628;2023-01-26T07:43:34;-19504.28;;;1.75;100.00
7058;BME280;3570;43.080;25.628;2023-01-26T07:46:18;-19513.41;;;2.06;100.00
7058;BME280;3570;43.080;25.628;2023-01-26T07:49:02;-19500.03;;;1.60;100.00
7058;BME280;3570;43.080;25.628;2023-01-26T07:51:46;-19518.41;;;2.23;100.00
7058;BME280;3570;43.080;25.628;2023-01-26T07:54:30;-19523.38;;;2.40;100.00
7058;BME280;3570;43.080;25.628;2023-01-26T07:57:14;-19526.63;;;2.51;100.00
7058;BME280;3570;43.080;25.628;2023-01-26T07:59:58;-19514.28;;;2.09;100.00
7058;BME280;3570;43.080;25.628;2023-01-26T08:02:43;-19525.72;;;2.48;100.00
7058;BME280;3570;43.080;25.628;2023-01-26T08:05:27;-19518.97;;;2.25;100.00
7058;BME280;3570;43.080;25.628;2023-01-26T08:08:12;-19517.50;;;2.20;100.00
7058;BME280;3570;43.080;25.628;2023-01-26T08:10:57;-19517.22;;;2.19;100.00
7058;BME280;3570;43.080;25.628;2023-01-26T08:13:43;-19523.97;;;2.42;100.00
7058;BME280;3570;43.080;25.628;2023-01-26T08:16:27;-19518.53;;;2.24;100.00
7058;BME280;3570;43.080;25.628;2023-01-26T08:19:11;-19528.09;;;2.56;100.00
7058;BME280;3570;43.080;25.628;2023-01-26T08:21:55;-19529.84;;;2.62;100.00
7058;BME280;3570;43.080;25.628;2023-01-26T08:24:40;-19530.44;;;2.64;100.00
7058;BME280;3570;43.080;25.628;2023-01-26T08:27:24;-19537.47;;;2.88;100.00
7058;BME280;3570;43.080;25.628;2023-01-26T08:30:08;-19529.69;;;2.62;100.00
7058;BME280;3570;43.080;25.628;2023-01-26T08:32:52;-19536.00;;;2.83;100.00
7058;BME280;3570;43.080;25.628;2023-01-26T08:35:36;-19541.59;;;3.03;100.00
7058;BME280;3570;43.080;25.628;2023-01-26T08:38:20;-19528.66;;;2.58;100.00
7058;BME280;3570;43.080;25.628;2023-01-26T08:41:05;-19546.88;;;3.21;100.00
7058;BME280;3570;43.080;25.628;2023-01-26T08:43:50;-19557.28;;;3.56;100.00
7058;BME280;3570;43.080;25.628;2023-01-26T08:46:35;-19551.56;;;3.37;100.00
7058;BME280;3570;43.080;25.628;2023-01-26T08:49:19;-19564.34;;;3.80;100.00
7058;BME280;3570;43.080;25.628;2023-01-26T08:52:04;-19560.53;;;3.67;100.00
7058;BME280;3570;43.080;25.628;2023-01-26T08:54:47;-19562.44;;;3.74;100.00
7058;BME280;3570;43.080;25.628;2023-01-26T08:57:31;-19563.00;;;3.76;100.00
7058;BME280;3570;43.080;25.628;2023-01-26T09:00:15;-19559.19;;;3.63;100.00
7058;BME280;3570;43.080;25.628;2023-01-26T09:03:01;-19558.75;;;3.61;100.00
7058;BME280;3570;43.080;25.628;2023-01-26T09:05:46;-19556.25;;;3.53;100.00
7058;BME280;3570;43.080;25.628;2023-01-26T09:08:30;-19557.16;;;3.56;100.00
7058;BME280;3570;43.080;25.628;2023-01-26T09:11:15;-19559.19;;;3.63;100.00
7058;BME280;3570;43.080;25.628;2023-01-26T09:13:58;-19556.25;;;3.53;100.00
7058;BME280;3570;43.080;25.628;2023-01-26T09:16:42;-19543.66;;;3.10;100.00
7058;BME280;3570;43.080;25.628;2023-01-26T09:19:26;-19549.81;;;3.31;100.00
7058;BME280;3570;43.080;25.628;2023-01-26T09:22:10;-19551.88;;;3.38;100.00
7058;BME280;3570;43.080;25.628;2023-01-26T09:24:54;-19546.59;;;3.20;100.00
7058;BME280;3570;43.080;25.628;2023-01-26T09:27:38;-19551.28;;;3.36;100.00
7058;BME280;3570;43.080;25.628;2023-01-26T09:30:22;-19557.44;;;3.57;100.00
7058;BME280;3570;43.080;25.628;2023-01-26T09:33:09;-19550.41;;;3.33;100.00
7058;BME280;3570;43.080;25.628;2023-01-26T09:35:53;-19562.56;;;3.74;100.00
7058;BME280;3570;43.080;25.628;2023-01-26T09:38:38;-19544.97;;;3.14;100.00
7058;BME280;3570;43.080;25.628;2023-01-26T09:41:48;-19552.16;;;3.39;100.00
7058;BME280;3570;43.080;25.628;2023-01-26T09:53:52;-19556.84;;;3.55;100.00
7058;BME280;3570;43.080;25.628;2023-01-26T09:56:38;-19548.19;;;3.25;100.00
7058;BME280;3570;43.080;25.628;2023-01-26T09:59:31;-19547.16;;;3.22;100.00
7058;BME280;3570;43.080;25.628;2023-01-26T10:08:19;-19557.72;;;3.58;100.00
7058;BME280;3570;43.080;25.628;2023-01-26T10:11:53;-19558.47;;;3.60;100.00
7058;BME280;3570;43.080;25.628;2023-01-26T10:14:36;-19558.03;;;3.59;100.00
7058;BME280;3570;43.080;25.628;2023-01-26T10:17:44;-19566.25;;;3.87;100.00
7058;BME280;3570;43.080;25.628;2023-01-26T10:20:32;-19573.00;;;4.10;100.00
7058;BME280;3570;43.080;25.628;2023-01-26T10:26:14;-19576.22;;;4.21;100.00
7058;BME280;3570;43.080;25.628;2023-01-26T10:28:59;-19581.94;;;4.41;100.00
7058;BME280;3570;43.080;25.628;2023-01-26T10:31:44;-19577.25;;;4.25;100.00
7058;BME280;3570;43.080;25.628;2023-01-26T10:34:28;-19577.38;;;4.25;100.00
7058;BME280;3570;43.080;25.628;2023-01-26T10:37:28;-19580.31;;;4.35;100.00
7058;BME280;3570;43.080;25.628;2023-01-26T10:40:12;-19570.66;;;4.02;100.00
7058;BME280;3570;43.080;25.628;2023-01-26T10:42:58;-19573.72;;;4.13;100.00
7058;BME280;3570;43.080;25.628;2023-01-26T10:45:46;-19571.53;;;4.05;100.00
7058;BME280;3570;43.080;25.628;2023-01-26T10:48:30;-19561.69;;;3.71;100.00
7058;BME280;3570;43.080;25.628;2023-01-26T10:51:18;-19558.91;;;3.62;100.00
7058;BME280;3570;43.080;25.628;2023-01-26T10:54:18;-19566.38;;;3.88;100.00
7058;BME280;3570;43.080;25.628;2023-01-26T10:57:26;-19562.56;;;3.74;100.00
7058;BME280;3570;43.080;25.628;2023-01-26T11:06:19;-19570.66;;;4.02;100.00
7058;BME280;3570;43.080;25.628;2023-01-26T11:09:16;-19568.28;;;3.94;100.00
7058;BME280;3570;43.080;25.628;2023-01-26T11:12:03;-19573.28;;;4.11;100.00
7058;BME280;3570;43.080;25.628;2023-01-26T11:15:15;-19568.28;;;3.94;100.00
7058;BME280;3570;43.080;25.628;2023-01-26T11:18:02;-19573.28;;;4.11;100.00
7058;BME280;3570;43.080;25.628;2023-01-26T11:21:14;-19574.00;;;4.14;100.00
7058;BME280;3570;43.080;25.628;2023-01-26T11:24:25;-19570.06;;;4.00;100.00
7058;BME280;3570;43.080;25.628;2023-01-26T11:30:23;-19573.72;;;4.13;100.00
7058;BME280;3570;43.080;25.628;2023-01-26T11:39:36;-19562.28;;;3.73;100.00
7058;BME280;3570;43.080;25.628;2023-01-26T11:42:43;-19571.97;;;4.07;100.00
7058;BME280;3570;43.080;25.628;2023-01-26T11:51:35;-19569.31;;;3.98;100.00
7058;BME280;3570;43.080;25.628;2023-01-26T11:57:57;-19560.66;;;3.68;100.00
7058;BME280;3570;43.080;25.628;2023-01-26T12:00:52;-19575.19;;;4.18;100.00
7058;BME280;3570;43.080;25.628;2023-01-26T12:03:48;-19575.47;;;4.19;100.00
7058;BME280;3570;43.080;25.628;2023-01-26T12:09:31;-19581.78;;;4.40;100.00
7058;BME280;3570;43.080;25.628;2023-01-26T12:12:40;-19580.03;;;4.34;100.00
7058;BME280;3570;43.080;25.628;2023-01-26T12:15:32;-19576.94;;;4.24;100.00
7058;BME280;3570;43.080;25.628;2023-01-26T12:18:23;-19573.88;;;4.13;100.00
7058;BME280;3570;43.080;25.628;2023-01-26T12:21:12;-19575.34;;;4.18;100.00
7058;BME280;3570;43.080;25.628;2023-01-26T12:24:01;-19571.22;;;4.04;100.00
7058;BME280;3570;43.080;25.628;2023-01-26T12:26:48;-19571.81;;;4.06;100.00
7058;BME280;3570;43.080;25.628;2023-01-26T12:29:50;-19567.56;;;3.92;100.00
7058;BME280;3570;43.080;25.628;2023-01-26T12:32:37;-19565.66;;;3.85;100.00
7058;BME280;3570;43.080;25.628;2023-01-26T12:38:17;-19572.09;;;4.07;100.00
7058;BME280;3570;43.080;25.628;2023-01-26T12:41:10;-19573.44;;;4.12;100.00
7058;BME280;3570;43.080;25.628;2023-01-26T12:46:49;-19577.53;;;4.26;100.00
7058;BME280;3570;43.080;25.628;2023-01-26T12:58:54;-19575.91;;;4.20;100.00
7058;BME280;3570;43.080;25.628;2023-01-26T13:01:21;-19579.75;;;4.33;100.00
7058;BME280;3570;43.080;25.628;2023-01-26T13:04:11;-19581.50;;;4.39;100.00
7058;BME280;3570;43.080;25.628;2023-01-26T13:07:01;-19574.59;;;4.16;100.00
7058;BME280;3570;43.080;25.628;2023-01-26T13:10:08;-19580.63;;;4.36;100.00
7058;BME280;3570;43.080;25.628;2023-01-26T13:13:25;-19584.00;;;4.48;100.00
7058;BME280;3570;43.080;25.628;2023-01-26T13:19:01;-19585.47;;;4.53;100.00
7058;BME280;3570;43.080;25.628;2023-01-26T13:21:45;-19579.44;;;4.32;100.00
7058;BME280;3570;43.080;25.628;2023-01-26T13:27:42;-19585.00;;;4.51;100.00
7058;BME280;3570;43.080;25.628;2023-01-26T13:30:41;-19585.31;;;4.52;100.00
7058;BME280;3570;43.080;25.628;2023-01-26T13:33:25;-19587.38;;;4.59;100.00
7058;BME280;3570;43.080;25.628;2023-01-26T13:36:14;-19582.09;;;4.41;100.00
7058;BME280;3570;43.080;25.628;2023-01-26T13:39:33;-19579.75;;;4.33;100.00
7058;BME280;3570;43.080;25.628;2023-01-26T13:42:24;-19580.75;;;4.37;100.00
7058;BME280;3570;43.080;25.628;2023-01-26T13:48:49;-19579.16;;;4.31;100.00
7058;BME280;3570;43.080;25.628;2023-01-26T13:51:34;-19571.22;;;4.04;100.00
7058;BME280;3570;43.080;25.628;2023-01-26T13:54:18;-19578.56;;;4.29;100.00
7058;BME280;3570;43.080;25.628;2023-01-26T13:57:06;-19575.63;;;4.19;100.00
7058;BME280;3570;43.080;25.628;2023-01-26T13:59:56;-19580.03;;;4.34;100.00
7058;BME280;3570;43.080;25.628;2023-01-26T14:02:47;-19582.09;;;4.41;100.00
7058;BME280;3570;43.080;25.628;2023-01-26T14:05:32;-19576.66;;;4.23;100.00
7058;BME280;3570;43.080;25.628;2023-01-26T14:08:18;-19584.72;;;4.50;100.00
7058;BME280;3570;43.080;25.628;2023-01-26T14:11:15;-19584.44;;;4.49;100.00
7058;BME280;3570;43.080;25.628;2023-01-26T14:14:00;-19581.50;;;4.39;100.00
7058;BME280;3570;43.080;25.628;2023-01-26T14:16:45;-19582.97;;;4.44;100.00
7058;BME280;3570;43.080;25.628;2023-01-26T14:19:29;-19578.41;;;4.29;100.00
7058;BME280;3570;43.080;25.628;2023-01-26T14:22:13;-19580.03;;;4.34;100.00
7058;BME280;3570;43.080;25.628;2023-01-26T14:24:58;-19580.91;;;4.37;100.00
7058;BME280;3570;43.080;25.628;2023-01-26T14:27:42;-19573.88;;;4.13;100.00
7058;BME280;3570;43.080;25.628;2023-01-26T14:30:29;-19578.28;;;4.28;100.00
7058;BME280;3570;43.080;25.628;2023-01-26T14:33:14;-19574.16;;;4.14;100.00
7058;BME280;3570;43.080;25.628;2023-01-26T14:36:01;-19579.16;;;4.31;100.00
7058;BME280;3570;43.080;25.628;2023-01-26T14:38:48;-19572.41;;;4.08;100.00
7058;BME280;3570;43.080;25.628;2023-01-26T14:41:34;-19578.13;;;4.28;100.00
7058;BME280;3570;43.080;25.628;2023-01-26T14:44:20;-19580.91;;;4.37;100.00
7058;BME280;3570;43.080;25.628;2023-01-26T14:47:23;-19579.88;;;4.34;100.00
7058;BME280;3570;43.080;25.628;2023-01-26T14:50:28;-19573.28;;;4.11;100.00
7058;BME280;3570;43.080;25.628;2023-01-26T14:53:20;-19573.28;;;4.11;100.00
7058;BME280;3570;43.080;25.628;2023-01-26T14:56:15;-19575.34;;;4.18;100.00
7058;BME280;3570;43.080;25.628;2023-01-26T14:59:01;-19562.88;;;3.75;100.00
7058;BME280;3570;43.080;25.628;2023-01-26T15:01:47;-19569.75;;;3.99;100.00
7058;BME280;3570;43.080;25.628;2023-01-26T15:04:36;-19568.00;;;3.93;100.00
7058;BME280;3570;43.080;25.628;2023-01-26T15:13:29;-19565.50;;;3.84;100.00
7058;BME280;3570;43.080;25.628;2023-01-26T15:16:20;-19565.38;;;3.84;100.00
7058;BME280;3570;43.080;25.628;2023-01-26T15:19:04;-19559.19;;;3.63;100.00
7058;BME280;3570;43.080;25.628;2023-01-26T15:21:52;-19568.59;;;3.95;100.00
7058;BME280;3570;43.080;25.628;2023-01-26T15:24:36;-19566.81;;;3.89;100.00
7058;BME280;3570;43.080;25.628;2023-01-26T15:27:20;-19560.66;;;3.68;100.00
7058;BME280;3570;43.080;25.628;2023-01-26T15:30:05;-19560.81;;;3.68;100.00
7058;BME280;3570;43.080;25.628;2023-01-26T15:32:50;-19566.25;;;3.87;100.00
7058;BME280;3570;43.080;25.628;2023-01-26T15:35:35;-19567.84;;;3.93;100.00
7058;BME280;3570;43.080;25.628;2023-01-26T15:38:19;-19571.09;;;4.04;100.00
7058;BME280;3570;43.080;25.628;2023-01-26T15:41:04;-19566.81;;;3.89;100.00
7058;BME280;3570;43.080;25.628;2023-01-26T15:43:51;-19569.75;;;3.99;100.00
7058;BME280;3570;43.080;25.628;2023-01-26T15:46:35;-19561.69;;;3.71;100.00
7058;BME280;3570;43.080;25.628;2023-01-26T15:49:19;-19562.72;;;3.75;100.00
7058;BME280;3570;43.080;25.628;2023-01-26T15:52:12;-19570.94;;;4.03;100.00
7058;BME280;3570;43.080;25.628;2023-01-26T15:54:57;-19570.19;;;4.01;100.00
7058;BME280;3570;43.080;25.628;2023-01-26T15:57:41;-19569.63;;;3.99;100.00
7058;BME280;3570;43.080;25.628;2023-01-26T16:00:25;-19563.00;;;3.76;100.00
7058;BME280;3570;43.080;25.628;2023-01-26T16:03:17;-19569.63;;;3.99;100.00
7058;BME280;3570;43.080;25.628;2023-01-26T16:06:01;-19563.16;;;3.76;100.00
7058;BME280;3570;43.080;25.628;2023-01-26T16:08:46;-19568.28;;;3.94;100.00
7058;BME280;3570;43.080;25.628;2023-01-26T16:11:34;-19568.00;;;3.93;100.00
7058;BME280;3570;43.080;25.628;2023-01-26T16:14:19;-19557.00;;;3.55;100.00
7058;BME280;3570;43.080;25.628;2023-01-26T16:17:11;-19564.03;;;3.79;100.00
7058;BME280;3570;43.080;25.628;2023-01-26T16:19:57;-19546.28;;;3.19;100.00
7058;BME280;3570;43.080;25.628;2023-01-26T16:22:43;-19560.06;;;3.66;100.00